createdAt,value
2023-04-03T00:00:33.608Z,12.97
2023-04-03T00:03:00.105Z,13.02
2023-04-03T00:05:27.261Z,13.04
2023-04-03T00:07:53.800Z,13.03
2023-04-03T00:10:20.618Z,12.99
2023-04-03T00:12:47.039Z,13.02
2023-04-03T00:15:13.706Z,13.01
2023-04-03T00:17:40.308Z,12.99
2023-04-03T00:20:07.352Z,13.00
2023-04-03T00:22:33.747Z,13.00
2023-04-03T00:25:00.261Z,12.99
2023-04-03T00:27:26.858Z,13.03
2023-04-03T00:29:53.288Z,13.00
2023-04-03T00:32:19.722Z,13.02
2023-04-03T00:34:46.194Z,13.01
2023-04-03T00:37:12.750Z,13.09
2023-04-03T00:39:39.147Z,13.01
2023-04-03T00:42:06.023Z,12.95
2023-04-03T00:44:32.324Z,12.94
2023-04-03T00:46:58.726Z,12.96
2023-04-03T00:49:25.293Z,12.93
2023-04-03T00:51:52.694Z,12.95
2023-04-03T00:54:19.355Z,12.88
2023-04-03T00:56:46.384Z,12.89
2023-04-03T00:59:17.796Z,12.90
2023-04-03T01:01:44.873Z,12.88
2023-04-03T01:04:33.525Z,12.90
2023-04-03T01:07:07.966Z,12.95
2023-04-03T01:09:35.601Z,12.86
2023-04-03T01:12:19.209Z,12.99
2023-04-03T01:14:49.457Z,12.86
2023-04-03T01:17:31.491Z,12.96
2023-04-03T01:20:26.129Z,12.98
2023-04-03T01:23:08.556Z,12.89
2023-04-03T01:25:37.357Z,12.83
2023-04-03T01:28:04.985Z,12.82
2023-04-03T01:30:36.587Z,12.78
2023-04-03T01:33:03.482Z,12.74
2023-04-03T01:35:30.017Z,12.69
2023-04-03T01:37:56.402Z,12.77
2023-04-03T01:40:22.819Z,12.75
2023-04-03T01:42:49.259Z,12.77
2023-04-03T01:45:15.716Z,12.78
2023-04-03T01:47:42.288Z,12.83
2023-04-03T01:50:09.018Z,12.77
2023-04-03T01:52:35.611Z,12.74
2023-04-03T01:55:02.042Z,12.72
2023-04-03T01:57:28.512Z,12.78
2023-04-03T01:59:54.949Z,12.84
2023-04-03T02:02:21.389Z,12.82
2023-04-03T02:04:47.786Z,12.82
2023-04-03T02:07:14.214Z,12.73
2023-04-03T02:09:40.689Z,12.73
2023-04-03T02:12:07.337Z,12.70
2023-04-03T02:14:33.745Z,12.73
2023-04-03T02:17:02.244Z,12.65
2023-04-03T02:19:28.615Z,12.68
2023-04-03T02:21:55.043Z,12.62
2023-04-03T02:24:21.510Z,12.63
2023-04-03T02:26:47.928Z,12.65
2023-04-03T02:29:14.461Z,12.72
2023-04-03T02:31:40.874Z,12.71
2023-04-03T02:34:07.241Z,12.65
2023-04-03T02:36:33.660Z,12.65
2023-04-03T02:39:00.126Z,12.67
2023-04-03T02:41:29.278Z,12.64
2023-04-03T02:43:55.934Z,12.61
2023-04-03T02:46:22.355Z,12.64
2023-04-03T02:48:48.857Z,12.57
2023-04-03T02:51:15.214Z,12.55
2023-04-03T02:53:41.638Z,12.57
2023-04-03T02:56:08.035Z,12.52
2023-04-03T02:58:34.396Z,12.53
2023-04-03T03:01:00.993Z,12.55
2023-04-03T03:03:27.480Z,12.50
2023-04-03T03:06:14.751Z,12.55
2023-04-03T03:08:42.069Z,12.51
2023-04-03T03:11:09.145Z,12.52
2023-04-03T03:13:35.986Z,12.54
2023-04-03T03:16:03.099Z,12.51
2023-04-03T03:18:30.131Z,12.43
2023-04-03T03:20:58.835Z,12.45
2023-04-03T03:23:27.144Z,12.46
2023-04-03T03:25:58.499Z,12.40
2023-04-03T03:28:25.294Z,12.40
2023-04-03T03:30:51.748Z,12.40
2023-04-03T03:33:18.781Z,12.44
2023-04-03T03:35:45.818Z,12.48
2023-04-03T03:38:12.925Z,12.44
2023-04-03T03:40:39.500Z,12.41
2023-04-03T03:43:06.052Z,12.50
2023-04-03T03:45:32.523Z,12.44
2023-04-03T03:47:58.993Z,12.48
2023-04-03T03:50:25.464Z,12.42
2023-04-03T03:52:51.922Z,12.42
2023-04-03T03:55:18.525Z,12.37
2023-04-03T03:57:44.919Z,12.38
2023-04-03T04:00:11.891Z,12.36
2023-04-03T04:02:38.456Z,12.42
2023-04-03T04:05:05.376Z,12.39
2023-04-03T04:07:31.807Z,12.41
2023-04-03T04:09:58.194Z,12.46
2023-04-03T04:12:24.553Z,12.39
2023-04-03T04:14:51.018Z,12.43
2023-04-03T04:17:17.471Z,12.36
2023-04-03T04:19:43.842Z,12.33
2023-04-03T04:22:10.279Z,12.36
2023-04-03T04:24:38.429Z,12.33
2023-04-03T04:27:05.663Z,12.30
2023-04-03T04:29:36.554Z,12.30
2023-04-03T04:32:03.968Z,12.36
2023-04-03T04:34:31.415Z,12.39
2023-04-03T04:36:58.038Z,12.36
2023-04-03T04:39:24.836Z,12.37
2023-04-03T04:41:51.373Z,12.37
2023-04-03T04:44:17.776Z,12.34
2023-04-03T04:46:44.252Z,12.33
2023-04-03T04:49:10.680Z,12.29
2023-04-03T04:51:48.433Z,12.32
2023-04-03T04:54:18.005Z,12.31
2023-04-03T04:56:44.406Z,12.20
2023-04-03T04:59:10.926Z,12.28
2023-04-03T05:01:37.385Z,12.27
2023-04-03T05:04:03.961Z,12.18
2023-04-03T05:06:32.639Z,12.18
2023-04-03T05:08:59.632Z,12.14
2023-04-03T05:11:26.578Z,12.19
2023-04-03T05:13:53.285Z,12.17
2023-04-03T05:16:19.820Z,12.21
2023-04-03T05:18:46.262Z,12.27
2023-04-03T05:21:12.964Z,12.24
2023-04-03T05:23:39.499Z,12.22
2023-04-03T05:26:06.443Z,12.22
2023-04-03T05:28:32.919Z,12.19
2023-04-03T05:30:59.922Z,12.21
2023-04-03T05:33:27.236Z,12.21
2023-04-03T05:35:54.801Z,12.20
2023-04-03T05:38:21.548Z,12.22
2023-04-03T05:40:48.126Z,12.21
2023-04-03T05:43:14.523Z,12.14
2023-04-03T05:45:41.151Z,12.14
2023-04-03T05:48:07.652Z,12.28
2023-04-03T05:50:34.084Z,12.25
2023-04-03T05:53:03.049Z,12.27
2023-04-03T05:55:29.421Z,12.21
2023-04-03T05:57:55.808Z,12.19
2023-04-03T06:00:22.490Z,12.19
2023-04-03T06:02:49.033Z,12.16
2023-04-03T06:05:15.719Z,12.20
2023-04-03T06:07:42.491Z,12.09
2023-04-03T06:10:09.881Z,12.18
2023-04-03T06:12:36.316Z,12.20
2023-04-03T06:15:03.271Z,12.19
2023-04-03T06:17:30.592Z,12.09
2023-04-03T06:19:59.197Z,12.13
2023-04-03T06:22:26.628Z,12.11
2023-04-03T06:24:53.048Z,12.12
2023-04-03T06:27:19.438Z,12.17
2023-04-03T06:29:46.345Z,12.21
2023-04-03T06:32:12.753Z,12.27
2023-04-03T06:34:39.166Z,12.39
2023-04-03T06:37:05.609Z,12.39
2023-04-03T06:39:31.999Z,12.52
2023-04-03T06:41:58.434Z,12.72
2023-04-03T06:44:24.906Z,13.22
2023-04-03T06:46:52.780Z,13.62
2023-04-03T06:49:19.174Z,14.02
2023-04-03T06:51:45.600Z,14.31
2023-04-03T06:54:13.660Z,14.68
2023-04-03T06:56:40.470Z,15.03
2023-04-03T06:59:06.881Z,15.33
2023-04-03T07:01:33.287Z,15.48
2023-04-03T07:03:59.860Z,15.63
2023-04-03T07:06:29.340Z,15.73
2023-04-03T07:08:56.376Z,16.01
2023-04-03T07:11:23.345Z,16.16
2023-04-03T07:13:50.015Z,16.10
2023-04-03T07:16:16.535Z,16.32
2023-04-03T07:18:43.001Z,16.44
2023-04-03T07:21:09.445Z,16.46
2023-04-03T07:23:35.964Z,16.58
2023-04-03T07:26:02.895Z,16.59
2023-04-03T07:28:29.303Z,16.75
2023-04-03T07:31:08.233Z,16.46
2023-04-03T07:33:36.052Z,16.54
2023-04-03T07:36:03.162Z,16.49
2023-04-03T07:38:29.999Z,16.41
2023-04-03T07:40:56.586Z,16.32
2023-04-03T07:43:23.377Z,16.35
2023-04-03T07:45:52.942Z,16.11
2023-04-03T07:48:21.958Z,16.01
2023-04-03T07:50:48.821Z,15.79
2023-04-03T07:53:15.935Z,15.86
2023-04-03T07:55:45.137Z,15.62
2023-04-03T07:58:13.856Z,15.56
2023-04-03T08:00:40.436Z,15.53
2023-04-03T08:03:09.643Z,15.51
2023-04-03T08:05:44.980Z,15.55
2023-04-03T08:08:18.630Z,15.47
2023-04-03T08:10:50.696Z,15.40
2023-04-03T08:13:17.118Z,15.34
2023-04-03T08:15:43.536Z,15.28
2023-04-03T08:18:10.451Z,15.28
2023-04-03T08:20:37.016Z,15.29
2023-04-03T08:23:03.473Z,15.27
2023-04-03T08:25:30.764Z,15.24
2023-04-03T08:27:57.295Z,15.20
2023-04-03T08:30:23.681Z,15.20
2023-04-03T08:32:50.043Z,15.22
2023-04-03T08:35:16.613Z,15.17
2023-04-03T08:37:43.218Z,15.22
2023-04-03T08:40:16.874Z,15.20
2023-04-03T08:43:13.309Z,15.26
2023-04-03T08:45:56.307Z,15.27
2023-04-03T08:48:28.488Z,15.19
2023-04-03T08:50:59.029Z,15.24
2023-04-03T08:53:33.518Z,15.23
2023-04-03T08:56:06.023Z,15.25
2023-04-03T08:59:13.184Z,15.15
2023-04-03T09:01:41.894Z,15.19
2023-04-03T09:04:14.916Z,15.12
2023-04-03T09:06:47.122Z,15.17
2023-04-03T09:09:36.138Z,15.04
2023-04-03T09:12:24.927Z,14.96
2023-04-03T09:15:04.002Z,15.03
2023-04-03T09:17:40.962Z,15.04
2023-04-03T09:20:37.457Z,15.05
2023-04-03T09:23:16.716Z,15.13
2023-04-03T09:25:44.764Z,15.10
2023-04-03T09:28:11.348Z,15.13
2023-04-03T09:30:39.343Z,15.16
2023-04-03T09:33:06.474Z,15.10
2023-04-03T09:35:44.818Z,15.14
2023-04-03T09:38:14.934Z,15.22
2023-04-03T09:40:43.942Z,15.26
2023-04-03T09:43:30.295Z,15.21
2023-04-03T09:46:19.329Z,15.21
2023-04-03T09:49:07.318Z,15.20
2023-04-03T09:51:34.275Z,15.23
2023-04-03T09:54:00.763Z,15.18
2023-04-03T09:56:31.258Z,15.22
2023-04-03T09:59:00.729Z,15.24
2023-04-03T10:01:33.490Z,15.30
2023-04-03T10:04:20.533Z,15.27
2023-04-03T10:06:55.251Z,15.24
2023-04-03T10:09:25.502Z,15.23
2023-04-03T10:12:07.676Z,15.27
2023-04-03T10:15:01.957Z,15.32
2023-04-03T10:17:43.746Z,15.29
2023-04-03T10:20:27.227Z,15.29
2023-04-03T10:23:12.189Z,15.44
2023-04-03T10:26:06.625Z,15.52
2023-04-03T10:28:57.988Z,15.46
2023-04-03T10:31:52.445Z,15.47
2023-04-03T10:34:36.731Z,15.52
2023-04-03T10:37:22.601Z,15.42
2023-04-03T10:39:59.906Z,15.54
2023-04-03T10:42:38.832Z,15.59
2023-04-03T10:45:20.732Z,15.49
2023-04-03T10:48:14.125Z,15.58
2023-04-03T10:51:01.491Z,15.54
2023-04-03T10:53:51.251Z,15.47
2023-04-03T10:56:35.397Z,15.51
2023-04-03T10:59:19.718Z,15.61
2023-04-03T11:01:52.795Z,15.61
2023-04-03T11:04:20.562Z,15.65
2023-04-03T11:06:59.700Z,15.57
2023-04-03T11:09:33.960Z,15.52
2023-04-03T11:12:19.706Z,15.52
2023-04-03T11:14:48.529Z,15.60
2023-04-03T11:17:23.773Z,15.68
2023-04-03T11:20:28.522Z,15.57
2023-04-03T11:23:04.876Z,15.65
2023-04-03T11:25:35.598Z,15.63
2023-04-03T11:28:12.739Z,15.64
2023-04-03T11:30:58.269Z,15.63
2023-04-03T11:33:37.739Z,15.76
2023-04-03T11:36:33.449Z,15.71
2023-04-03T11:39:27.455Z,15.72
2023-04-03T11:42:06.811Z,15.71
2023-04-03T11:44:38.664Z,15.67
2023-04-03T11:47:13.281Z,15.78
2023-04-03T11:50:02.546Z,15.83
2023-04-03T11:52:43.777Z,15.75
2023-04-03T11:55:22.794Z,15.76
2023-04-03T11:57:58.402Z,15.78
2023-04-03T12:00:46.668Z,15.80
2023-04-03T12:03:28.666Z,15.93
2023-04-03T12:06:07.667Z,15.90
2023-04-03T12:08:33.975Z,15.98
2023-04-03T12:11:34.950Z,15.98
2023-04-03T12:14:01.372Z,15.96
2023-04-03T12:16:35.577Z,15.99
2023-04-03T12:19:41.111Z,15.91
2023-04-03T12:22:12.047Z,15.88
2023-04-03T12:24:44.809Z,15.84
2023-04-03T12:27:39.340Z,15.80
2023-04-03T12:30:06.026Z,15.89
2023-04-03T12:32:35.474Z,15.89
2023-04-03T12:35:28.869Z,15.83
2023-04-03T12:38:21.150Z,15.81
2023-04-03T12:41:18.391Z,15.84
2023-04-03T12:44:19.344Z,15.92
2023-04-03T12:46:49.263Z,15.80
2023-04-03T12:49:34.096Z,15.82
2023-04-03T12:52:01.420Z,15.83
2023-04-03T12:54:36.099Z,15.79
2023-04-03T12:57:17.256Z,15.86
2023-04-03T12:59:46.458Z,15.94
2023-04-03T13:02:28.828Z,15.93
2023-04-03T13:04:59.291Z,15.92
2023-04-03T13:07:31.707Z,15.93
2023-04-03T13:10:05.493Z,16.01
2023-04-03T13:12:32.509Z,16.03
2023-04-03T13:15:02.381Z,15.98
2023-04-03T13:17:29.115Z,15.98
2023-04-03T13:19:55.811Z,16.00
2023-04-03T13:22:31.047Z,16.05
2023-04-03T13:25:03.882Z,15.93
2023-04-03T13:27:31.963Z,16.03
2023-04-03T13:30:01.621Z,15.94
2023-04-03T13:32:32.279Z,15.93
2023-04-03T13:35:08.065Z,15.96
2023-04-03T13:37:56.331Z,16.09
2023-04-03T13:40:23.331Z,16.09
2023-04-03T13:43:05.645Z,16.15
2023-04-03T13:45:35.330Z,16.07
2023-04-03T13:48:23.296Z,16.03
2023-04-03T13:50:55.411Z,16.01
2023-04-03T13:53:22.130Z,16.08
2023-04-03T13:56:03.464Z,16.13
2023-04-03T13:58:31.976Z,16.14
2023-04-03T14:01:07.563Z,16.00
2023-04-03T14:03:45.459Z,15.98
2023-04-03T14:06:16.368Z,16.04
2023-04-03T14:08:44.090Z,15.99
2023-04-03T14:11:21.733Z,16.13
2023-04-03T14:13:48.304Z,16.10
2023-04-03T14:16:21.346Z,16.09
2023-04-03T14:18:48.436Z,16.03
2023-04-03T14:21:17.880Z,16.10
2023-04-03T14:23:44.482Z,16.10
2023-04-03T14:26:21.755Z,16.04
2023-04-03T14:28:50.909Z,16.07
2023-04-03T14:31:18.579Z,16.07
2023-04-03T14:33:46.214Z,16.09
2023-04-03T14:36:14.282Z,16.05
2023-04-03T14:38:42.533Z,16.09
2023-04-03T14:41:16.456Z,16.06
2023-04-03T14:43:44.836Z,16.05
2023-04-03T14:46:39.077Z,16.02
2023-04-03T14:49:22.282Z,16.01
2023-04-03T14:51:49.047Z,15.92
2023-04-03T14:54:19.743Z,15.96
2023-04-03T14:56:46.650Z,15.99
2023-04-03T14:59:14.682Z,15.99
2023-04-03T15:01:41.217Z,15.98
2023-04-03T15:04:16.436Z,15.99
2023-04-03T15:06:43.995Z,15.96
2023-04-03T15:09:24.470Z,15.90
2023-04-03T15:11:52.463Z,15.87
2023-04-03T15:14:29.745Z,15.90
2023-04-03T15:17:04.820Z,15.85
2023-04-03T15:19:39.015Z,15.86
2023-04-03T15:22:05.520Z,15.82
2023-04-03T15:24:31.999Z,15.88
2023-04-03T15:26:58.537Z,15.85
2023-04-03T15:29:25.018Z,15.87
2023-04-03T15:31:54.476Z,15.76
2023-04-03T15:34:22.650Z,15.80
2023-04-03T15:36:51.049Z,15.80
2023-04-03T15:39:17.516Z,15.73
2023-04-03T15:41:43.940Z,15.73
2023-04-03T15:44:10.602Z,15.68
2023-04-03T15:46:37.028Z,15.66
2023-04-03T15:49:03.517Z,15.60
2023-04-03T15:51:30.995Z,15.66
2023-04-03T15:53:57.422Z,15.64
2023-04-03T15:56:23.786Z,15.58
2023-04-03T15:58:50.204Z,15.63
2023-04-03T16:01:16.855Z,15.62
2023-04-03T16:03:46.173Z,15.55
2023-04-03T16:06:14.742Z,15.50
2023-04-03T16:08:41.452Z,15.46
2023-04-03T16:11:07.832Z,15.48
2023-04-03T16:13:35.640Z,15.45
2023-04-03T16:16:03.208Z,15.42
2023-04-03T16:18:30.579Z,15.38
2023-04-03T16:20:57.537Z,15.39
2023-04-03T16:23:24.559Z,15.41
2023-04-03T16:25:51.203Z,15.39
2023-04-03T16:28:19.161Z,15.33
2023-04-03T16:30:47.009Z,15.29
2023-04-03T16:33:14.482Z,15.18
2023-04-03T16:35:42.939Z,15.27
2023-04-03T16:38:09.419Z,15.22
2023-04-03T16:40:36.186Z,15.25
2023-04-03T16:43:03.291Z,15.19
2023-04-03T16:45:29.744Z,15.05
2023-04-03T16:47:56.204Z,14.97
2023-04-03T16:50:22.742Z,14.88
2023-04-03T16:52:49.597Z,14.89
2023-04-03T16:55:16.111Z,14.84
2023-04-03T16:57:42.595Z,14.78
2023-04-03T17:00:09.550Z,14.68
2023-04-03T17:02:36.039Z,14.69
2023-04-03T17:05:02.628Z,14.68
2023-04-03T17:07:29.140Z,14.58
2023-04-03T17:09:55.816Z,14.49
2023-04-03T17:12:22.912Z,14.47
2023-04-03T17:14:49.577Z,14.41
2023-04-03T17:17:16.915Z,14.37
2023-04-03T17:19:44.250Z,14.34
2023-04-03T17:22:10.871Z,14.23
2023-04-03T17:24:37.398Z,14.20
2023-04-03T17:27:04.085Z,14.12
2023-04-03T17:29:30.486Z,14.14
2023-04-03T17:31:57.142Z,14.09
2023-04-03T17:34:23.612Z,14.05
2023-04-03T17:36:50.467Z,14.02
2023-04-03T17:39:16.889Z,13.98
2023-04-03T17:41:45.680Z,13.88
2023-04-03T17:44:13.039Z,13.86
2023-04-03T17:46:39.586Z,13.81
2023-04-03T17:49:06.094Z,13.83
2023-04-03T17:51:34.480Z,13.77
2023-04-03T17:54:01.267Z,13.79
2023-04-03T17:56:28.063Z,13.67
2023-04-03T17:58:56.687Z,13.62
2023-04-03T18:01:27.013Z,13.48
2023-04-03T18:03:56.088Z,13.51
2023-04-03T18:06:27.137Z,13.46
2023-04-03T18:08:57.730Z,13.39
2023-04-03T18:11:28.173Z,13.34
2023-04-03T18:13:59.566Z,13.30
2023-04-03T18:16:27.037Z,13.22
2023-04-03T18:19:02.487Z,13.18
2023-04-03T18:21:40.461Z,13.09
2023-04-03T18:24:12.036Z,13.08
2023-04-03T18:26:38.650Z,13.01
2023-04-03T18:29:08.346Z,12.97
2023-04-03T18:31:37.207Z,12.94
2023-04-03T18:34:04.002Z,12.87
2023-04-03T18:36:30.494Z,12.79
2023-04-03T18:38:57.064Z,12.73
2023-04-03T18:41:27.506Z,12.68
2023-04-03T18:43:55.986Z,12.59
2023-04-03T18:46:22.544Z,12.59
2023-04-03T18:48:49.065Z,12.63
2023-04-03T18:51:15.978Z,12.56
2023-04-03T18:53:42.429Z,12.54
2023-04-03T18:56:08.869Z,12.52
2023-04-03T18:58:35.499Z,12.42
2023-04-03T19:01:02.524Z,12.46
2023-04-03T19:03:31.790Z,12.45
2023-04-03T19:05:58.336Z,12.40
2023-04-03T19:08:25.011Z,12.38
2023-04-03T19:10:51.457Z,12.32
2023-04-03T19:13:17.871Z,12.24
2023-04-03T19:15:44.777Z,12.24
2023-04-03T19:18:11.203Z,12.19
2023-04-03T19:20:37.765Z,12.11
2023-04-03T19:23:04.402Z,12.13
2023-04-03T19:25:30.859Z,12.13
2023-04-03T19:27:57.441Z,12.12
2023-04-03T19:30:24.738Z,11.94
2023-04-03T19:32:51.652Z,11.96
2023-04-03T19:35:18.609Z,11.97
2023-04-03T19:37:48.819Z,12.00
2023-04-03T19:40:15.403Z,12.01
2023-04-03T19:42:42.938Z,11.94
2023-04-03T19:45:11.582Z,11.90
2023-04-03T19:47:38.504Z,11.93
2023-04-03T19:50:05.730Z,11.95
2023-04-03T19:52:32.239Z,11.93
2023-04-03T19:54:58.633Z,11.90
2023-04-03T19:57:25.091Z,11.89
2023-04-03T19:59:51.627Z,11.69
2023-04-03T20:02:18.859Z,11.73
2023-04-03T20:04:45.469Z,11.78
2023-04-03T20:07:12.922Z,11.78
2023-04-03T20:09:39.293Z,11.76
2023-04-03T20:12:05.984Z,11.77
2023-04-03T20:14:35.412Z,11.64
2023-04-03T20:17:02.169Z,11.50
2023-04-03T20:19:30.147Z,11.47
2023-04-03T20:21:58.362Z,11.59
2023-04-03T20:24:24.743Z,11.57
2023-04-03T20:26:51.593Z,11.54
2023-04-03T20:29:19.181Z,11.46
2023-04-03T20:31:46.669Z,11.32
2023-04-03T20:34:14.541Z,11.43
2023-04-03T20:36:40.953Z,11.34
2023-04-03T20:39:07.424Z,11.33
2023-04-03T20:41:35.496Z,11.36
2023-04-03T20:44:02.287Z,11.29
2023-04-03T20:46:42.115Z,11.32
2023-04-03T20:49:09.080Z,11.21
2023-04-03T20:51:36.281Z,11.22
2023-04-03T20:54:03.019Z,11.06
2023-04-03T20:56:33.076Z,11.12
2023-04-03T20:59:01.767Z,11.10
2023-04-03T21:01:28.284Z,11.19
2023-04-03T21:04:02.252Z,11.18
2023-04-03T21:07:06.414Z,11.19
2023-04-03T21:10:10.468Z,11.14
2023-04-03T21:12:56.274Z,11.06
2023-04-03T21:15:48.818Z,11.11
2023-04-03T21:18:43.345Z,10.99
2023-04-03T21:21:24.547Z,11.03
2023-04-03T21:23:52.557Z,11.06
2023-04-03T21:26:21.648Z,10.95
2023-04-03T21:28:50.514Z,11.08
2023-04-03T21:31:16.986Z,11.04
2023-04-03T21:33:43.493Z,11.13
2023-04-03T21:36:10.101Z,11.04
2023-04-03T21:38:36.553Z,11.12
2023-04-03T21:41:03.207Z,11.05
2023-04-03T21:43:30.037Z,11.00
2023-04-03T21:45:58.432Z,10.89
2023-04-03T21:48:25.790Z,10.94
2023-04-03T21:50:54.733Z,10.96
2023-04-03T21:53:22.524Z,10.79
2023-04-03T21:56:00.196Z,10.73
2023-04-03T21:58:33.748Z,10.83
2023-04-03T22:01:14.058Z,10.76
2023-04-03T22:03:41.775Z,10.68
2023-04-03T22:06:09.427Z,10.64
2023-04-03T22:08:36.572Z,10.77
2023-04-03T22:11:12.808Z,10.80
2023-04-03T22:13:39.789Z,10.65
2023-04-03T22:16:06.622Z,10.58
2023-04-03T22:18:34.078Z,10.53
2023-04-03T22:21:00.919Z,10.51
2023-04-03T22:23:27.433Z,10.61
2023-04-03T22:26:13.372Z,10.41
2023-04-03T22:28:45.153Z,10.46
2023-04-03T22:31:13.408Z,10.41
2023-04-03T22:33:41.634Z,10.31
2023-04-03T22:36:11.128Z,10.31
2023-04-03T22:38:38.937Z,10.41
2023-04-03T22:41:07.860Z,10.35
2023-04-03T22:43:36.362Z,10.40
2023-04-03T22:46:04.575Z,10.51
2023-04-03T22:48:31.735Z,10.53
2023-04-03T22:50:59.804Z,10.49
2023-04-03T22:53:26.406Z,10.34
2023-04-03T22:56:00.992Z,10.42
2023-04-03T22:58:28.759Z,10.37
2023-04-03T23:01:03.432Z,10.39
2023-04-03T23:03:29.822Z,10.34
2023-04-03T23:05:57.403Z,10.43
2023-04-03T23:08:23.919Z,10.39
2023-04-03T23:10:54.484Z,10.34
2023-04-03T23:13:20.852Z,10.20
2023-04-03T23:15:53.426Z,10.09
2023-04-03T23:18:19.797Z,10.15
2023-04-03T23:20:46.394Z,10.15
2023-04-03T23:23:12.786Z,10.17
2023-04-03T23:25:39.210Z,10.09
2023-04-03T23:28:05.591Z,9.91
2023-04-03T23:30:32.219Z,10.01
2023-04-03T23:32:58.673Z,9.95
2023-04-03T23:35:25.066Z,9.99
2023-04-03T23:37:51.406Z,9.89
2023-04-03T23:40:17.889Z,9.73
2023-04-03T23:42:44.283Z,9.65
2023-04-03T23:45:10.688Z,9.77
2023-04-03T23:47:37.513Z,9.74
2023-04-03T23:50:04.238Z,9.74
2023-04-03T23:52:30.619Z,9.68
2023-04-03T23:54:57.043Z,9.68
2023-04-03T23:57:23.382Z,9.68
2023-04-03T23:59:49.756Z,9.60
